CYXT

Terrace Airport

Terrace, , Canada
METAR CYXT 190600Z 17009KT 8SM -RA BKN005 BKN030 BKN075 01/01 A2953 RMK SF5SC1AC1 SLP010
Observed Flight Rules
Dec-19 @ 06:00 UTC (26 minutes ago) Instrument Flight Rules
Wind Visibility Clouds Conditions
170° at 9 knots 8 miles
  • Broken at 500' AGL
  • Broken at 3,000' AGL
  • Broken at 7,500' AGL
  • Light Rain
Temperatures Readings
Current 1°C / 34°F
Dewpoint 1°C / 34°F
Humidity 100%
Altimeter 29.53" Hg
Pressure 1001 hPa
Elevation 217
METAR CYXT 190600Z 17009KT 8SM -RA BKN005 BKN030 BKN075 01/01 A2953 RMK SF5SC1AC1 SLP010
Observed Flight Rules
Dec-19 @ 06:00 UTC
(26 minutes ago)
IFR
Wind Visibility
170° at 9 knots 8 miles
Clouds
  • Broken at 500' AGL
  • Broken at 3,000' AGL
  • Broken at 7,500' AGL
Conditions
  • Light Rain
Temperature Dewpoint
1°C / 34°F 1°C / 34°F
Humidity Altimeter Pressure
100% 29.53" Hg 1001 hPa